sensor_id;sensor_type;location;lat;lon;timestamp;P1;durP1;ratioP1;P2;durP2;ratioP2
68888;SDS011;55930;47.412;8.790;2023-11-18T00:01:41;2.72;;;1.40;;
68888;SDS011;55930;47.412;8.790;2023-11-18T00:05:02;1.70;;;1.00;;
68888;SDS011;55930;47.412;8.790;2023-11-18T00:08:22;3.60;;;1.50;;
68888;SDS011;55930;47.412;8.790;2023-11-18T00:11:43;2.37;;;1.80;;
68888;SDS011;55930;47.412;8.790;2023-11-18T00:15:03;1.83;;;1.40;;
68888;SDS011;55930;47.412;8.790;2023-11-18T00:18:24;2.53;;;1.30;;
68888;SDS011;55930;47.412;8.790;2023-11-18T00:21:44;1.60;;;1.30;;
68888;SDS011;55930;47.412;8.790;2023-11-18T00:25:05;3.13;;;1.53;;
68888;SDS011;55930;47.412;8.790;2023-11-18T00:28:27;3.05;;;1.30;;
68888;SDS011;55930;47.412;8.790;2023-11-18T00:31:50;2.60;;;1.30;;
68888;SDS011;55930;47.412;8.790;2023-11-18T00:35:11;2.95;;;1.58;;
68888;SDS011;55930;47.412;8.790;2023-11-18T00:38:33;2.35;;;1.60;;
68888;SDS011;55930;47.412;8.790;2023-11-18T00:41:53;3.27;;;1.37;;
68888;SDS011;55930;47.412;8.790;2023-11-18T00:45:15;3.47;;;1.60;;
68888;SDS011;55930;47.412;8.790;2023-11-18T00:48:38;1.77;;;1.57;;
68888;SDS011;55930;47.412;8.790;2023-11-18T00:51:59;2.40;;;1.52;;
68888;SDS011;55930;47.412;8.790;2023-11-18T00:55:19;2.63;;;1.60;;
68888;SDS011;55930;47.412;8.790;2023-11-18T00:58:40;3.47;;;1.40;;
68888;SDS011;55930;47.412;8.790;2023-11-18T01:02:00;4.03;;;1.77;;
68888;SDS011;55930;47.412;8.790;2023-11-18T01:05:23;3.13;;;1.80;;
68888;SDS011;55930;47.412;8.790;2023-11-18T01:08:44;2.73;;;1.77;;
68888;SDS011;55930;47.412;8.790;2023-11-18T01:12:05;4.45;;;2.08;;
68888;SDS011;55930;47.412;8.790;2023-11-18T01:15:29;3.47;;;1.63;;
68888;SDS011;55930;47.412;8.790;2023-11-18T01:18:51;3.15;;;1.92;;
68888;SDS011;55930;47.412;8.790;2023-11-18T01:22:12;2.10;;;1.63;;
68888;SDS011;55930;47.412;8.790;2023-11-18T01:25:32;4.07;;;2.13;;
68888;SDS011;55930;47.412;8.790;2023-11-18T01:28:52;2.10;;;1.77;;
68888;SDS011;55930;47.412;8.790;2023-11-18T01:32:13;3.30;;;1.97;;
68888;SDS011;55930;47.412;8.790;2023-11-18T01:35:34;3.77;;;2.00;;
68888;SDS011;55930;47.412;8.790;2023-11-18T01:38:54;2.43;;;1.93;;
68888;SDS011;55930;47.412;8.790;2023-11-18T01:42:15;2.10;;;1.90;;
68888;SDS011;55930;47.412;8.790;2023-11-18T01:45:38;3.03;;;2.10;;
68888;SDS011;55930;47.412;8.790;2023-11-18T01:49:01;2.75;;;2.03;;
68888;SDS011;55930;47.412;8.790;2023-11-18T01:52:23;3.30;;;2.25;;
68888;SDS011;55930;47.412;8.790;2023-11-18T01:55:44;2.70;;;2.10;;
68888;SDS011;55930;47.412;8.790;2023-11-18T01:59:06;2.15;;;1.95;;
68888;SDS011;55930;47.412;8.790;2023-11-18T02:02:29;6.32;;;1.85;;
68888;SDS011;55930;47.412;8.790;2023-11-18T02:05:52;2.40;;;2.00;;
68888;SDS011;55930;47.412;8.790;2023-11-18T02:09:12;4.32;;;2.20;;
68888;SDS011;55930;47.412;8.790;2023-11-18T02:16:21;5.45;;;2.47;;
68888;SDS011;55930;47.412;8.790;2023-11-18T02:19:43;3.92;;;2.00;;
68888;SDS011;55930;47.412;8.790;2023-11-18T02:23:05;4.72;;;2.38;;
68888;SDS011;55930;47.412;8.790;2023-11-18T02:26:27;3.53;;;2.20;;
68888;SDS011;55930;47.412;8.790;2023-11-18T02:29:47;2.70;;;2.00;;
68888;SDS011;55930;47.412;8.790;2023-11-18T02:36:45;3.70;;;2.00;;
68888;SDS011;55930;47.412;8.790;2023-11-18T02:40:08;3.03;;;2.20;;
68888;SDS011;55930;47.412;8.790;2023-11-18T02:43:34;3.17;;;2.17;;
68888;SDS011;55930;47.412;8.790;2023-11-18T02:46:57;2.60;;;2.10;;
68888;SDS011;55930;47.412;8.790;2023-11-18T02:50:18;3.42;;;2.00;;
68888;SDS011;55930;47.412;8.790;2023-11-18T02:53:40;3.00;;;2.65;;
68888;SDS011;55930;47.412;8.790;2023-11-18T02:57:01;2.47;;;2.13;;
68888;SDS011;55930;47.412;8.790;2023-11-18T03:00:21;2.80;;;1.93;;
68888;SDS011;55930;47.412;8.790;2023-11-18T03:03:42;5.07;;;2.03;;
68888;SDS011;55930;47.412;8.790;2023-11-18T03:07:03;2.88;;;2.15;;
68888;SDS011;55930;47.412;8.790;2023-11-18T03:10:23;4.23;;;2.10;;
68888;SDS011;55930;47.412;8.790;2023-11-18T03:13:46;3.50;;;2.00;;
68888;SDS011;55930;47.412;8.790;2023-11-18T03:17:07;2.80;;;1.70;;
68888;SDS011;55930;47.412;8.790;2023-11-18T03:20:30;3.03;;;2.00;;
68888;SDS011;55930;47.412;8.790;2023-11-18T03:23:50;3.47;;;2.00;;
68888;SDS011;55930;47.412;8.790;2023-11-18T03:27:11;2.27;;;1.87;;
68888;SDS011;55930;47.412;8.790;2023-11-18T03:30:32;2.57;;;1.80;;
68888;SDS011;55930;47.412;8.790;2023-11-18T03:33:52;2.77;;;1.87;;
68888;SDS011;55930;47.412;8.790;2023-11-18T03:37:13;2.47;;;2.10;;
68888;SDS011;55930;47.412;8.790;2023-11-18T03:40:38;1.95;;;1.60;;
68888;SDS011;55930;47.412;8.790;2023-11-18T03:43:58;3.65;;;1.80;;
68888;SDS011;55930;47.412;8.790;2023-11-18T03:47:18;2.50;;;1.80;;
68888;SDS011;55930;47.412;8.790;2023-11-18T03:50:39;2.63;;;2.13;;
68888;SDS011;55930;47.412;8.790;2023-11-18T03:54:00;4.30;;;1.83;;
68888;SDS011;55930;47.412;8.790;2023-11-18T03:57:21;2.27;;;1.97;;
68888;SDS011;55930;47.412;8.790;2023-11-18T04:00:42;2.85;;;1.90;;
68888;SDS011;55930;47.412;8.790;2023-11-18T04:04:02;3.40;;;2.23;;
68888;SDS011;55930;47.412;8.790;2023-11-18T04:07:24;3.05;;;1.90;;
68888;SDS011;55930;47.412;8.790;2023-11-18T04:10:44;4.67;;;2.53;;
68888;SDS011;55930;47.412;8.790;2023-11-18T04:14:04;3.17;;;2.10;;
68888;SDS011;55930;47.412;8.790;2023-11-18T04:17:25;2.27;;;1.80;;
68888;SDS011;55930;47.412;8.790;2023-11-18T04:20:48;3.47;;;2.03;;
68888;SDS011;55930;47.412;8.790;2023-11-18T04:24:08;3.57;;;2.10;;
68888;SDS011;55930;47.412;8.790;2023-11-18T04:27:29;3.08;;;2.00;;
68888;SDS011;55930;47.412;8.790;2023-11-18T04:30:49;4.30;;;2.07;;
68888;SDS011;55930;47.412;8.790;2023-11-18T04:34:10;3.20;;;2.00;;
68888;SDS011;55930;47.412;8.790;2023-11-18T04:37:30;2.40;;;1.87;;
68888;SDS011;55930;47.412;8.790;2023-11-18T04:40:54;3.53;;;1.97;;
68888;SDS011;55930;47.412;8.790;2023-11-18T04:44:17;2.17;;;1.90;;
68888;SDS011;55930;47.412;8.790;2023-11-18T04:47:37;4.43;;;2.30;;
68888;SDS011;55930;47.412;8.790;2023-11-18T04:50:58;4.60;;;2.10;;
68888;SDS011;55930;47.412;8.790;2023-11-18T04:54:18;3.10;;;1.80;;
68888;SDS011;55930;47.412;8.790;2023-11-18T04:57:41;2.30;;;1.77;;
68888;SDS011;55930;47.412;8.790;2023-11-18T05:01:03;2.60;;;1.90;;
68888;SDS011;55930;47.412;8.790;2023-11-18T05:04:24;2.17;;;1.85;;
68888;SDS011;55930;47.412;8.790;2023-11-18T05:07:45;2.97;;;2.10;;
68888;SDS011;55930;47.412;8.790;2023-11-18T05:11:05;4.23;;;2.20;;
68888;SDS011;55930;47.412;8.790;2023-11-18T05:14:26;3.77;;;2.10;;
68888;SDS011;55930;47.412;8.790;2023-11-18T05:17:46;3.57;;;1.80;;
68888;SDS011;55930;47.412;8.790;2023-11-18T05:21:08;3.03;;;2.10;;
68888;SDS011;55930;47.412;8.790;2023-11-18T05:24:29;2.77;;;2.10;;
68888;SDS011;55930;47.412;8.790;2023-11-18T05:27:49;3.33;;;2.20;;
68888;SDS011;55930;47.412;8.790;2023-11-18T05:31:10;4.33;;;2.57;;
68888;SDS011;55930;47.412;8.790;2023-11-18T05:34:30;2.93;;;2.00;;
68888;SDS011;55930;47.412;8.790;2023-11-18T05:37:51;1.87;;;1.60;;
68888;SDS011;55930;47.412;8.790;2023-11-18T05:41:11;3.33;;;2.53;;
68888;SDS011;55930;47.412;8.790;2023-11-18T05:44:37;6.93;;;2.20;;
68888;SDS011;55930;47.412;8.790;2023-11-18T05:47:59;3.15;;;2.20;;
68888;SDS011;55930;47.412;8.790;2023-11-18T05:51:20;8.40;;;2.10;;
68888;SDS011;55930;47.412;8.790;2023-11-18T05:54:42;2.88;;;2.15;;
68888;SDS011;55930;47.412;8.790;2023-11-18T05:58:02;2.40;;;1.90;;
68888;SDS011;55930;47.412;8.790;2023-11-18T06:01:23;2.50;;;2.03;;
68888;SDS011;55930;47.412;8.790;2023-11-18T06:04:44;5.57;;;2.03;;
68888;SDS011;55930;47.412;8.790;2023-11-18T06:08:05;4.50;;;2.78;;
68888;SDS011;55930;47.412;8.790;2023-11-18T06:11:25;2.50;;;1.90;;
68888;SDS011;55930;47.412;8.790;2023-11-18T06:14:47;2.78;;;2.03;;
68888;SDS011;55930;47.412;8.790;2023-11-18T06:18:11;5.25;;;1.80;;
68888;SDS011;55930;47.412;8.790;2023-11-18T06:21:31;5.75;;;1.90;;
68888;SDS011;55930;47.412;8.790;2023-11-18T06:24:52;2.67;;;2.23;;
68888;SDS011;55930;47.412;8.790;2023-11-18T06:28:12;4.57;;;1.67;;
68888;SDS011;55930;47.412;8.790;2023-11-18T06:31:33;2.95;;;2.35;;
68888;SDS011;55930;47.412;8.790;2023-11-18T06:34:54;2.97;;;2.50;;
68888;SDS011;55930;47.412;8.790;2023-11-18T06:38:15;3.60;;;2.92;;
68888;SDS011;55930;47.412;8.790;2023-11-18T06:41:38;5.25;;;3.70;;
68888;SDS011;55930;47.412;8.790;2023-11-18T06:45:08;3.50;;;3.17;;
68888;SDS011;55930;47.412;8.790;2023-11-18T06:48:29;7.75;;;5.63;;
68888;SDS011;55930;47.412;8.790;2023-11-18T06:51:50;5.73;;;4.93;;
68888;SDS011;55930;47.412;8.790;2023-11-18T06:55:10;6.65;;;5.13;;
68888;SDS011;55930;47.412;8.790;2023-11-18T06:58:31;9.70;;;5.63;;
68888;SDS011;55930;47.412;8.790;2023-11-18T07:01:54;7.23;;;6.30;;
68888;SDS011;55930;47.412;8.790;2023-11-18T07:05:14;6.30;;;5.55;;
68888;SDS011;55930;47.412;8.790;2023-11-18T07:08:38;5.53;;;4.73;;
68888;SDS011;55930;47.412;8.790;2023-11-18T07:11:59;4.57;;;3.58;;
68888;SDS011;55930;47.412;8.790;2023-11-18T07:15:19;5.40;;;4.87;;
68888;SDS011;55930;47.412;8.790;2023-11-18T07:18:40;7.97;;;6.03;;
68888;SDS011;55930;47.412;8.790;2023-11-18T07:22:02;7.07;;;5.50;;
68888;SDS011;55930;47.412;8.790;2023-11-18T07:25:26;7.97;;;5.78;;
68888;SDS011;55930;47.412;8.790;2023-11-18T07:28:47;5.82;;;4.97;;
68888;SDS011;55930;47.412;8.790;2023-11-18T07:32:07;6.50;;;5.17;;
68888;SDS011;55930;47.412;8.790;2023-11-18T07:35:30;5.30;;;4.15;;
68888;SDS011;55930;47.412;8.790;2023-11-18T07:38:54;5.45;;;4.18;;
68888;SDS011;55930;47.412;8.790;2023-11-18T07:42:15;6.63;;;4.45;;
68888;SDS011;55930;47.412;8.790;2023-11-18T07:45:38;6.72;;;3.78;;
68888;SDS011;55930;47.412;8.790;2023-11-18T07:48:59;3.65;;;2.88;;
68888;SDS011;55930;47.412;8.790;2023-11-18T07:52:21;4.82;;;2.97;;
68888;SDS011;55930;47.412;8.790;2023-11-18T07:55:42;4.93;;;3.03;;
68888;SDS011;55930;47.412;8.790;2023-11-18T07:59:02;4.23;;;2.37;;
68888;SDS011;55930;47.412;8.790;2023-11-18T08:02:23;6.13;;;5.50;;
68888;SDS011;55930;47.412;8.790;2023-11-18T08:05:45;10.40;;;5.85;;
68888;SDS011;55930;47.412;8.790;2023-11-18T08:09:05;15.23;;;8.87;;
68888;SDS011;55930;47.412;8.790;2023-11-18T08:12:31;19.65;;;17.55;;
68888;SDS011;55930;47.412;8.790;2023-11-18T08:15:52;15.57;;;13.90;;
68888;SDS011;55930;47.412;8.790;2023-11-18T08:19:13;8.13;;;7.17;;
68888;SDS011;55930;47.412;8.790;2023-11-18T08:22:33;8.67;;;6.17;;
68888;SDS011;55930;47.412;8.790;2023-11-18T08:25:54;10.20;;;6.28;;
68888;SDS011;55930;47.412;8.790;2023-11-18T08:29:15;7.13;;;5.72;;
68888;SDS011;55930;47.412;8.790;2023-11-18T08:32:39;6.13;;;5.40;;
68888;SDS011;55930;47.412;8.790;2023-11-18T08:36:04;5.03;;;4.15;;
68888;SDS011;55930;47.412;8.790;2023-11-18T08:39:24;6.77;;;4.43;;
68888;SDS011;55930;47.412;8.790;2023-11-18T08:42:47;5.95;;;4.88;;
68888;SDS011;55930;47.412;8.790;2023-11-18T08:46:09;6.35;;;5.00;;
68888;SDS011;55930;47.412;8.790;2023-11-18T08:49:30;6.60;;;5.00;;
68888;SDS011;55930;47.412;8.790;2023-11-18T08:52:54;6.00;;;4.45;;
68888;SDS011;55930;47.412;8.790;2023-11-18T08:56:18;3.78;;;2.53;;
68888;SDS011;55930;47.412;8.790;2023-11-18T08:59:41;6.90;;;3.70;;
68888;SDS011;55930;47.412;8.790;2023-11-18T09:03:01;7.00;;;3.10;;
68888;SDS011;55930;47.412;8.790;2023-11-18T09:06:25;3.38;;;1.88;;
68888;SDS011;55930;47.412;8.790;2023-11-18T09:09:45;4.47;;;2.33;;
68888;SDS011;55930;47.412;8.790;2023-11-18T09:13:09;2.25;;;1.52;;
68888;SDS011;55930;47.412;8.790;2023-11-18T09:16:32;2.20;;;1.45;;
68888;SDS011;55930;47.412;8.790;2023-11-18T09:19:58;3.08;;;1.38;;
68888;SDS011;55930;47.412;8.790;2023-11-18T09:23:19;2.77;;;1.77;;
68888;SDS011;55930;47.412;8.790;2023-11-18T09:26:39;2.37;;;2.13;;
68888;SDS011;55930;47.412;8.790;2023-11-18T09:30:01;3.88;;;2.00;;
68888;SDS011;55930;47.412;8.790;2023-11-18T09:33:23;3.60;;;1.92;;
68888;SDS011;55930;47.412;8.790;2023-11-18T09:40:17;5.93;;;2.78;;
68888;SDS011;55930;47.412;8.790;2023-11-18T09:43:45;5.60;;;3.10;;
68888;SDS011;55930;47.412;8.790;2023-11-18T09:47:09;3.95;;;2.65;;
68888;SDS011;55930;47.412;8.790;2023-11-18T09:50:36;5.35;;;2.55;;
68888;SDS011;55930;47.412;8.790;2023-11-18T09:54:03;6.03;;;2.75;;
68888;SDS011;55930;47.412;8.790;2023-11-18T09:57:39;6.05;;;2.47;;
68888;SDS011;55930;47.412;8.790;2023-11-18T10:01:03;5.28;;;2.33;;
68888;SDS011;55930;47.412;8.790;2023-11-18T10:04:24;4.13;;;2.20;;
68888;SDS011;55930;47.412;8.790;2023-11-18T10:07:48;3.42;;;1.55;;
68888;SDS011;55930;47.412;8.790;2023-11-18T10:11:09;1.88;;;1.38;;
68888;SDS011;55930;47.412;8.790;2023-11-18T10:14:34;2.75;;;1.63;;
68888;SDS011;55930;47.412;8.790;2023-11-18T10:17:55;3.05;;;1.98;;
68888;SDS011;55930;47.412;8.790;2023-11-18T10:21:36;2.00;;;1.52;;
68888;SDS011;55930;47.412;8.790;2023-11-18T10:24:59;1.95;;;1.30;;
68888;SDS011;55930;47.412;8.790;2023-11-18T10:31:43;4.13;;;1.23;;
68888;SDS011;55930;47.412;8.790;2023-11-18T10:35:06;2.50;;;1.45;;
68888;SDS011;55930;47.412;8.790;2023-11-18T10:38:31;1.63;;;1.30;;
68888;SDS011;55930;47.412;8.790;2023-11-18T10:41:54;2.28;;;1.20;;
68888;SDS011;55930;47.412;8.790;2023-11-18T10:45:25;2.15;;;1.40;;
68888;SDS011;55930;47.412;8.790;2023-11-18T10:48:47;2.15;;;1.25;;
68888;SDS011;55930;47.412;8.790;2023-11-18T10:52:08;2.72;;;1.20;;
68888;SDS011;55930;47.412;8.790;2023-11-18T10:59:06;1.70;;;1.30;;
68888;SDS011;55930;47.412;8.790;2023-11-18T11:02:29;2.33;;;1.73;;
68888;SDS011;55930;47.412;8.790;2023-11-18T11:05:54;1.55;;;1.40;;
68888;SDS011;55930;47.412;8.790;2023-11-18T11:09:15;1.63;;;1.00;;
68888;SDS011;55930;47.412;8.790;2023-11-18T11:12:42;1.23;;;1.00;;
68888;SDS011;55930;47.412;8.790;2023-11-18T11:16:12;1.77;;;1.00;;
68888;SDS011;55930;47.412;8.790;2023-11-18T11:23:27;1.88;;;1.10;;
68888;SDS011;55930;47.412;8.790;2023-11-18T11:27:28;1.17;;;1.05;;
68888;SDS011;55930;47.412;8.790;2023-11-18T11:31:02;2.50;;;1.10;;
68888;SDS011;55930;47.412;8.790;2023-11-18T11:34:37;2.45;;;0.90;;
68888;SDS011;55930;47.412;8.790;2023-11-18T11:38:02;1.80;;;1.30;;
68888;SDS011;55930;47.412;8.790;2023-11-18T11:41:29;2.67;;;1.70;;
68888;SDS011;55930;47.412;8.790;2023-11-18T11:44:54;2.28;;;1.10;;
68888;SDS011;55930;47.412;8.790;2023-11-18T11:51:49;1.65;;;1.20;;
68888;SDS011;55930;47.412;8.790;2023-11-18T11:58:58;1.42;;;1.17;;
68888;SDS011;55930;47.412;8.790;2023-11-18T12:02:23;1.70;;;1.17;;
68888;SDS011;55930;47.412;8.790;2023-11-18T12:05:47;2.03;;;1.13;;
68888;SDS011;55930;47.412;8.790;2023-11-18T12:09:09;1.67;;;1.20;;
68888;SDS011;55930;47.412;8.790;2023-11-18T12:12:39;2.00;;;1.20;;
68888;SDS011;55930;47.412;8.790;2023-11-18T12:16:02;1.55;;;0.85;;
68888;SDS011;55930;47.412;8.790;2023-11-18T12:19:31;1.00;;;0.90;;
68888;SDS011;55930;47.412;8.790;2023-11-18T12:23:03;2.88;;;0.93;;
68888;SDS011;55930;47.412;8.790;2023-11-18T12:26:37;1.75;;;0.90;;
68888;SDS011;55930;47.412;8.790;2023-11-18T12:30:00;1.35;;;0.88;;
68888;SDS011;55930;47.412;8.790;2023-11-18T12:33:20;1.43;;;0.80;;
68888;SDS011;55930;47.412;8.790;2023-11-18T12:37:08;1.50;;;0.80;;
68888;SDS011;55930;47.412;8.790;2023-11-18T12:41:02;3.95;;;1.10;;
68888;SDS011;55930;47.412;8.790;2023-11-18T12:44:29;1.35;;;1.10;;
68888;SDS011;55930;47.412;8.790;2023-11-18T12:47:55;3.67;;;1.30;;
68888;SDS011;55930;47.412;8.790;2023-11-18T12:51:18;1.35;;;1.00;;
68888;SDS011;55930;47.412;8.790;2023-11-18T12:54:44;2.13;;;1.00;;
68888;SDS011;55930;47.412;8.790;2023-11-18T12:58:10;1.67;;;1.08;;
68888;SDS011;55930;47.412;8.790;2023-11-18T13:01:35;1.27;;;0.80;;
68888;SDS011;55930;47.412;8.790;2023-11-18T13:04:58;2.00;;;1.20;;
68888;SDS011;55930;47.412;8.790;2023-11-18T13:08:19;1.23;;;0.80;;
68888;SDS011;55930;47.412;8.790;2023-11-18T13:11:42;1.88;;;0.90;;
68888;SDS011;55930;47.412;8.790;2023-11-18T13:15:03;1.53;;;0.70;;
68888;SDS011;55930;47.412;8.790;2023-11-18T13:18:23;3.15;;;1.23;;
68888;SDS011;55930;47.412;8.790;2023-11-18T13:21:44;1.60;;;0.90;;
68888;SDS011;55930;47.412;8.790;2023-11-18T13:25:04;1.73;;;1.20;;
68888;SDS011;55930;47.412;8.790;2023-11-18T13:28:25;3.87;;;1.27;;
68888;SDS011;55930;47.412;8.790;2023-11-18T13:31:47;1.10;;;1.00;;
68888;SDS011;55930;47.412;8.790;2023-11-18T13:38:35;1.27;;;1.00;;
68888;SDS011;55930;47.412;8.790;2023-11-18T13:41:57;2.13;;;1.15;;
68888;SDS011;55930;47.412;8.790;2023-11-18T13:45:17;1.67;;;0.90;;
68888;SDS011;55930;47.412;8.790;2023-11-18T13:48:40;1.20;;;0.80;;
68888;SDS011;55930;47.412;8.790;2023-11-18T13:52:01;1.40;;;1.00;;
68888;SDS011;55930;47.412;8.790;2023-11-18T13:55:22;1.65;;;1.10;;
68888;SDS011;55930;47.412;8.790;2023-11-18T13:58:47;2.55;;;1.10;;
68888;SDS011;55930;47.412;8.790;2023-11-18T14:02:09;1.95;;;1.13;;
68888;SDS011;55930;47.412;8.790;2023-11-18T14:05:33;1.55;;;1.10;;
68888;SDS011;55930;47.412;8.790;2023-11-18T14:08:53;2.08;;;1.17;;
68888;SDS011;55930;47.412;8.790;2023-11-18T14:12:16;2.35;;;1.00;;
68888;SDS011;55930;47.412;8.790;2023-11-18T14:15:36;2.87;;;1.30;;
68888;SDS011;55930;47.412;8.790;2023-11-18T14:18:57;3.17;;;1.07;;
68888;SDS011;55930;47.412;8.790;2023-11-18T14:22:17;2.50;;;1.30;;
68888;SDS011;55930;47.412;8.790;2023-11-18T14:25:38;2.30;;;1.33;;
68888;SDS011;55930;47.412;8.790;2023-11-18T14:28:58;2.03;;;1.17;;
68888;SDS011;55930;47.412;8.790;2023-11-18T14:32:19;2.80;;;1.43;;
68888;SDS011;55930;47.412;8.790;2023-11-18T14:35:39;2.97;;;1.10;;
68888;SDS011;55930;47.412;8.790;2023-11-18T14:39:00;1.73;;;0.90;;
68888;SDS011;55930;47.412;8.790;2023-11-18T14:42:22;2.08;;;1.20;;
68888;SDS011;55930;47.412;8.790;2023-11-18T14:45:43;1.67;;;1.30;;
68888;SDS011;55930;47.412;8.790;2023-11-18T14:49:04;2.27;;;1.30;;
68888;SDS011;55930;47.412;8.790;2023-11-18T14:52:29;1.58;;;0.90;;
68888;SDS011;55930;47.412;8.790;2023-11-18T14:55:50;3.60;;;1.52;;
68888;SDS011;55930;47.412;8.790;2023-11-18T14:59:10;3.17;;;2.40;;
68888;SDS011;55930;47.412;8.790;2023-11-18T15:02:32;4.35;;;1.90;;
68888;SDS011;55930;47.412;8.790;2023-11-18T15:05:53;2.15;;;1.20;;
68888;SDS011;55930;47.412;8.790;2023-11-18T15:09:14;1.58;;;0.93;;
68888;SDS011;55930;47.412;8.790;2023-11-18T15:12:35;1.83;;;1.10;;
68888;SDS011;55930;47.412;8.790;2023-11-18T15:15:57;2.30;;;0.70;;
68888;SDS011;55930;47.412;8.790;2023-11-18T15:19:18;1.67;;;1.23;;
68888;SDS011;55930;47.412;8.790;2023-11-18T15:22:39;1.75;;;1.10;;
68888;SDS011;55930;47.412;8.790;2023-11-18T15:26:02;1.58;;;0.90;;
68888;SDS011;55930;47.412;8.790;2023-11-18T15:29:23;0.93;;;0.60;;
68888;SDS011;55930;47.412;8.790;2023-11-18T15:32:48;1.42;;;0.80;;
68888;SDS011;55930;47.412;8.790;2023-11-18T15:36:08;1.40;;;0.77;;
68888;SDS011;55930;47.412;8.790;2023-11-18T15:39:32;1.73;;;0.70;;
68888;SDS011;55930;47.412;8.790;2023-11-18T15:42:58;0.80;;;0.80;;
68888;SDS011;55930;47.412;8.790;2023-11-18T15:46:18;1.40;;;0.63;;
68888;SDS011;55930;47.412;8.790;2023-11-18T15:49:39;0.90;;;0.50;;
68888;SDS011;55930;47.412;8.790;2023-11-18T15:52:59;1.00;;;0.67;;
68888;SDS011;55930;47.412;8.790;2023-11-18T15:56:20;1.80;;;0.80;;
68888;SDS011;55930;47.412;8.790;2023-11-18T15:59:40;1.63;;;1.10;;
68888;SDS011;55930;47.412;8.790;2023-11-18T16:03:00;1.27;;;0.70;;
68888;SDS011;55930;47.412;8.790;2023-11-18T16:06:21;1.57;;;0.80;;
68888;SDS011;55930;47.412;8.790;2023-11-18T16:09:41;2.03;;;1.00;;
68888;SDS011;55930;47.412;8.790;2023-11-18T16:13:04;1.80;;;0.90;;
68888;SDS011;55930;47.412;8.790;2023-11-18T16:16:24;1.03;;;0.80;;
68888;SDS011;55930;47.412;8.790;2023-11-18T16:19:47;2.13;;;1.35;;
68888;SDS011;55930;47.412;8.790;2023-11-18T16:23:09;1.73;;;1.20;;
68888;SDS011;55930;47.412;8.790;2023-11-18T16:26:30;1.65;;;1.10;;
68888;SDS011;55930;47.412;8.790;2023-11-18T16:29:50;1.53;;;1.03;;
68888;SDS011;55930;47.412;8.790;2023-11-18T16:33:11;3.87;;;1.40;;
68888;SDS011;55930;47.412;8.790;2023-11-18T16:36:33;2.15;;;1.05;;
68888;SDS011;55930;47.412;8.790;2023-11-18T16:39:54;1.87;;;1.13;;
68888;SDS011;55930;47.412;8.790;2023-11-18T16:43:14;2.00;;;1.20;;
68888;SDS011;55930;47.412;8.790;2023-11-18T16:46:38;4.07;;;1.70;;
68888;SDS011;55930;47.412;8.790;2023-11-18T16:50:02;2.45;;;1.02;;
68888;SDS011;55930;47.412;8.790;2023-11-18T16:53:24;1.15;;;0.93;;
68888;SDS011;55930;47.412;8.790;2023-11-18T16:56:44;2.70;;;2.07;;
68888;SDS011;55930;47.412;8.790;2023-11-18T17:00:05;2.80;;;2.10;;
68888;SDS011;55930;47.412;8.790;2023-11-18T17:03:37;5.97;;;3.93;;
68888;SDS011;55930;47.412;8.790;2023-11-18T17:06:58;1.75;;;1.02;;
68888;SDS011;55930;47.412;8.790;2023-11-18T17:10:18;2.90;;;1.13;;
68888;SDS011;55930;47.412;8.790;2023-11-18T17:13:39;1.30;;;1.10;;
68888;SDS011;55930;47.412;8.790;2023-11-18T17:17:00;1.40;;;1.05;;
68888;SDS011;55930;47.412;8.790;2023-11-18T17:20:21;1.07;;;0.93;;
68888;SDS011;55930;47.412;8.790;2023-11-18T17:23:41;2.10;;;1.07;;
68888;SDS011;55930;47.412;8.790;2023-11-18T17:27:04;1.42;;;0.80;;
68888;SDS011;55930;47.412;8.790;2023-11-18T17:30:24;1.97;;;1.03;;
68888;SDS011;55930;47.412;8.790;2023-11-18T17:33:45;1.37;;;1.10;;
68888;SDS011;55930;47.412;8.790;2023-11-18T17:43:48;1.87;;;1.07;;
68888;SDS011;55930;47.412;8.790;2023-11-18T17:47:12;2.20;;;1.10;;
68888;SDS011;55930;47.412;8.790;2023-11-18T17:50:32;2.58;;;1.52;;
68888;SDS011;55930;47.412;8.790;2023-11-18T17:53:54;2.42;;;1.77;;
68888;SDS011;55930;47.412;8.790;2023-11-18T17:57:17;2.08;;;1.25;;
68888;SDS011;55930;47.412;8.790;2023-11-18T18:00:37;2.53;;;0.93;;
68888;SDS011;55930;47.412;8.790;2023-11-18T18:03:57;1.30;;;1.03;;
68888;SDS011;55930;47.412;8.790;2023-11-18T18:07:18;2.50;;;1.30;;
68888;SDS011;55930;47.412;8.790;2023-11-18T18:10:39;2.27;;;1.07;;
68888;SDS011;55930;47.412;8.790;2023-11-18T18:14:00;1.63;;;1.23;;
68888;SDS011;55930;47.412;8.790;2023-11-18T18:17:21;1.73;;;1.10;;
68888;SDS011;55930;47.412;8.790;2023-11-18T18:20:44;1.30;;;0.97;;
68888;SDS011;55930;47.412;8.790;2023-11-18T18:24:08;2.60;;;1.13;;
68888;SDS011;55930;47.412;8.790;2023-11-18T18:27:31;1.65;;;1.00;;
68888;SDS011;55930;47.412;8.790;2023-11-18T18:30:54;1.85;;;1.20;;
68888;SDS011;55930;47.412;8.790;2023-11-18T18:34:17;1.70;;;1.17;;
68888;SDS011;55930;47.412;8.790;2023-11-18T18:37:37;2.75;;;1.38;;
68888;SDS011;55930;47.412;8.790;2023-11-18T18:40:58;2.57;;;1.17;;
68888;SDS011;55930;47.412;8.790;2023-11-18T18:44:18;1.47;;;1.00;;
68888;SDS011;55930;47.412;8.790;2023-11-18T18:47:39;1.10;;;0.70;;
68888;SDS011;55930;47.412;8.790;2023-11-18T18:51:00;1.60;;;0.80;;
68888;SDS011;55930;47.412;8.790;2023-11-18T18:54:24;1.20;;;0.90;;
68888;SDS011;55930;47.412;8.790;2023-11-18T18:57:44;1.50;;;0.90;;
68888;SDS011;55930;47.412;8.790;2023-11-18T19:01:08;1.63;;;1.00;;
68888;SDS011;55930;47.412;8.790;2023-11-18T19:04:32;2.17;;;0.90;;
68888;SDS011;55930;47.412;8.790;2023-11-18T19:07:52;1.63;;;0.90;;
68888;SDS011;55930;47.412;8.790;2023-11-18T19:11:17;1.23;;;0.80;;
68888;SDS011;55930;47.412;8.790;2023-11-18T19:14:38;1.70;;;1.00;;
68888;SDS011;55930;47.412;8.790;2023-11-18T19:21:19;4.33;;;1.20;;
68888;SDS011;55930;47.412;8.790;2023-11-18T19:24:40;1.07;;;0.90;;
68888;SDS011;55930;47.412;8.790;2023-11-18T19:28:02;2.40;;;1.42;;
68888;SDS011;55930;47.412;8.790;2023-11-18T19:31:23;1.50;;;1.20;;
68888;SDS011;55930;47.412;8.790;2023-11-18T19:34:43;3.17;;;1.20;;
68888;SDS011;55930;47.412;8.790;2023-11-18T19:38:04;2.60;;;1.30;;
68888;SDS011;55930;47.412;8.790;2023-11-18T19:41:26;2.80;;;1.30;;
68888;SDS011;55930;47.412;8.790;2023-11-18T19:44:47;2.17;;;1.17;;
68888;SDS011;55930;47.412;8.790;2023-11-18T19:51:29;1.57;;;1.40;;
68888;SDS011;55930;47.412;8.790;2023-11-18T19:54:50;2.17;;;1.30;;
68888;SDS011;55930;47.412;8.790;2023-11-18T19:58:10;1.87;;;1.37;;
68888;SDS011;55930;47.412;8.790;2023-11-18T20:01:30;4.97;;;1.30;;
68888;SDS011;55930;47.412;8.790;2023-11-18T20:04:51;1.77;;;1.20;;
68888;SDS011;55930;47.412;8.790;2023-11-18T20:08:11;2.27;;;1.40;;
68888;SDS011;55930;47.412;8.790;2023-11-18T20:11:32;4.07;;;1.50;;
68888;SDS011;55930;47.412;8.790;2023-11-18T20:14:52;4.43;;;1.20;;
68888;SDS011;55930;47.412;8.790;2023-11-18T20:18:13;1.97;;;1.13;;
68888;SDS011;55930;47.412;8.790;2023-11-18T20:21:33;3.13;;;1.10;;
68888;SDS011;55930;47.412;8.790;2023-11-18T20:24:55;2.03;;;1.15;;
68888;SDS011;55930;47.412;8.790;2023-11-18T20:28:18;2.05;;;1.05;;
68888;SDS011;55930;47.412;8.790;2023-11-18T20:31:39;1.20;;;0.93;;
68888;SDS011;55930;47.412;8.790;2023-11-18T20:35:00;1.23;;;0.90;;
68888;SDS011;55930;47.412;8.790;2023-11-18T20:38:22;1.80;;;1.07;;
68888;SDS011;55930;47.412;8.790;2023-11-18T20:41:47;1.70;;;1.10;;
68888;SDS011;55930;47.412;8.790;2023-11-18T20:45:08;1.40;;;0.90;;
68888;SDS011;55930;47.412;8.790;2023-11-18T20:48:33;2.03;;;1.00;;
68888;SDS011;55930;47.412;8.790;2023-11-18T20:51:54;2.30;;;1.10;;
68888;SDS011;55930;47.412;8.790;2023-11-18T20:55:14;1.23;;;0.97;;
68888;SDS011;55930;47.412;8.790;2023-11-18T20:58:34;2.07;;;1.10;;
68888;SDS011;55930;47.412;8.790;2023-11-18T21:01:55;1.77;;;1.07;;
68888;SDS011;55930;47.412;8.790;2023-11-18T21:05:15;1.57;;;0.80;;